sensor_id;sensor_type;location;lat;lon;timestamp;P1;durP1;ratioP1;P2;durP2;ratioP2
41683;SDS011;27369;52.030;4.586;2023-02-22T00:00:27;18.83;;;9.65;;
41683;SDS011;27369;52.030;4.586;2023-02-22T00:03:15;14.00;;;8.73;;
41683;SDS011;27369;52.030;4.586;2023-02-22T00:05:43;20.45;;;9.80;;
41683;SDS011;27369;52.030;4.586;2023-02-22T00:08:14;6.07;;;5.47;;
41683;SDS011;27369;52.030;4.586;2023-02-22T00:10:42;4.32;;;3.90;;
41683;SDS011;27369;52.030;4.586;2023-02-22T00:13:08;19.55;;;6.30;;
41683;SDS011;27369;52.030;4.586;2023-02-22T00:15:37;11.50;;;5.40;;
41683;SDS011;27369;52.030;4.586;2023-02-22T00:18:05;5.50;;;4.97;;
41683;SDS011;27369;52.030;4.586;2023-02-22T00:20:34;13.23;;;6.95;;
41683;SDS011;27369;52.030;4.586;2023-02-22T00:23:03;16.13;;;9.90;;
41683;SDS011;27369;52.030;4.586;2023-02-22T00:25:31;4.05;;;3.72;;
41683;SDS011;27369;52.030;4.586;2023-02-22T00:27:58;16.77;;;8.68;;
41683;SDS011;27369;52.030;4.586;2023-02-22T00:30:24;1.73;;;1.52;;
41683;SDS011;27369;52.030;4.586;2023-02-22T00:32:53;9.27;;;2.78;;
41683;SDS011;27369;52.030;4.586;2023-02-22T00:35:21;3.10;;;2.90;;
41683;SDS011;27369;52.030;4.586;2023-02-22T00:37:49;4.88;;;3.38;;
41683;SDS011;27369;52.030;4.586;2023-02-22T00:40:17;1.40;;;1.35;;
41683;SDS011;27369;52.030;4.586;2023-02-22T00:42:47;6.55;;;3.80;;
41683;SDS011;27369;52.030;4.586;2023-02-22T00:45:17;8.07;;;4.43;;
41683;SDS011;27369;52.030;4.586;2023-02-22T00:47:46;5.20;;;4.80;;
41683;SDS011;27369;52.030;4.586;2023-02-22T00:50:12;10.40;;;5.35;;
41683;SDS011;27369;52.030;4.586;2023-02-22T00:52:38;11.90;;;7.72;;
41683;SDS011;27369;52.030;4.586;2023-02-22T00:55:04;22.23;;;7.20;;
41683;SDS011;27369;52.030;4.586;2023-02-22T00:57:31;16.38;;;8.93;;
41683;SDS011;27369;52.030;4.586;2023-02-22T01:00:01;10.45;;;5.55;;
41683;SDS011;27369;52.030;4.586;2023-02-22T01:02:36;9.30;;;6.53;;
41683;SDS011;27369;52.030;4.586;2023-02-22T01:05:03;5.38;;;2.80;;
41683;SDS011;27369;52.030;4.586;2023-02-22T01:07:29;12.82;;;8.45;;
41683;SDS011;27369;52.030;4.586;2023-02-22T01:09:55;14.63;;;9.50;;
41683;SDS011;27369;52.030;4.586;2023-02-22T01:12:20;10.40;;;7.47;;
41683;SDS011;27369;52.030;4.586;2023-02-22T01:14:46;23.55;;;10.15;;
41683;SDS011;27369;52.030;4.586;2023-02-22T01:17:12;22.40;;;10.77;;
41683;SDS011;27369;52.030;4.586;2023-02-22T01:19:38;16.40;;;8.77;;
41683;SDS011;27369;52.030;4.586;2023-02-22T01:22:06;16.80;;;8.23;;
41683;SDS011;27369;52.030;4.586;2023-02-22T01:24:32;8.02;;;7.15;;
41683;SDS011;27369;52.030;4.586;2023-02-22T01:26:58;17.50;;;5.53;;
41683;SDS011;27369;52.030;4.586;2023-02-22T01:29:23;6.97;;;3.55;;
41683;SDS011;27369;52.030;4.586;2023-02-22T01:31:49;15.50;;;11.27;;
41683;SDS011;27369;52.030;4.586;2023-02-22T01:34:19;7.68;;;5.80;;
41683;SDS011;27369;52.030;4.586;2023-02-22T01:36:46;4.85;;;4.43;;
41683;SDS011;27369;52.030;4.586;2023-02-22T01:39:11;4.18;;;3.97;;
41683;SDS011;27369;52.030;4.586;2023-02-22T01:41:37;7.50;;;4.28;;
41683;SDS011;27369;52.030;4.586;2023-02-22T01:47:02;6.78;;;5.63;;
41683;SDS011;27369;52.030;4.586;2023-02-22T01:49:38;3.70;;;3.28;;
41683;SDS011;27369;52.030;4.586;2023-02-22T01:52:09;3.70;;;3.38;;
41683;SDS011;27369;52.030;4.586;2023-02-22T01:54:39;4.22;;;3.83;;
41683;SDS011;27369;52.030;4.586;2023-02-22T01:57:12;2.05;;;1.95;;
41683;SDS011;27369;52.030;4.586;2023-02-22T01:59:45;1.65;;;1.60;;
41683;SDS011;27369;52.030;4.586;2023-02-22T02:02:15;10.70;;;4.75;;
41683;SDS011;27369;52.030;4.586;2023-02-22T02:04:42;2.60;;;2.50;;
41683;SDS011;27369;52.030;4.586;2023-02-22T02:07:10;6.55;;;4.05;;
41683;SDS011;27369;52.030;4.586;2023-02-22T02:09:43;8.45;;;7.03;;
41683;SDS011;27369;52.030;4.586;2023-02-22T02:12:16;6.97;;;5.60;;
41683;SDS011;27369;52.030;4.586;2023-02-22T02:14:43;5.70;;;5.00;;
41683;SDS011;27369;52.030;4.586;2023-02-22T02:17:10;5.35;;;3.25;;
41683;SDS011;27369;52.030;4.586;2023-02-22T02:22:37;4.32;;;3.90;;
41683;SDS011;27369;52.030;4.586;2023-02-22T02:34:20;12.52;;;7.90;;
41683;SDS011;27369;52.030;4.586;2023-02-22T02:41:55;7.32;;;6.55;;
41683;SDS011;27369;52.030;4.586;2023-02-22T02:44:44;7.63;;;6.85;;
41683;SDS011;27369;52.030;4.586;2023-02-22T02:47:20;13.18;;;8.93;;
41683;SDS011;27369;52.030;4.586;2023-02-22T02:49:53;20.33;;;8.20;;
41683;SDS011;27369;52.030;4.586;2023-02-22T02:52:24;6.75;;;6.15;;
41683;SDS011;27369;52.030;4.586;2023-02-22T02:54:51;8.80;;;5.72;;
41683;SDS011;27369;52.030;4.586;2023-02-22T02:57:18;12.52;;;8.23;;
41683;SDS011;27369;52.030;4.586;2023-02-22T02:59:44;19.67;;;10.50;;
41683;SDS011;27369;52.030;4.586;2023-02-22T03:18:32;6.20;;;5.72;;
41683;SDS011;27369;52.030;4.586;2023-02-22T03:21:23;7.32;;;4.90;;
41683;SDS011;27369;52.030;4.586;2023-02-22T03:24:12;20.02;;;11.95;;
41683;SDS011;27369;52.030;4.586;2023-02-22T03:26:45;9.82;;;6.63;;
41683;SDS011;27369;52.030;4.586;2023-02-22T03:29:13;14.50;;;10.63;;
41683;SDS011;27369;52.030;4.586;2023-02-22T03:31:44;10.88;;;9.77;;
41683;SDS011;27369;52.030;4.586;2023-02-22T03:34:15;4.60;;;3.22;;
41683;SDS011;27369;52.030;4.586;2023-02-22T03:36:52;12.07;;;8.65;;
41683;SDS011;27369;52.030;4.586;2023-02-22T03:39:22;12.82;;;9.23;;
41683;SDS011;27369;52.030;4.586;2023-02-22T03:41:55;14.00;;;6.50;;
41683;SDS011;27369;52.030;4.586;2023-02-22T03:44:29;15.20;;;9.32;;
41683;SDS011;27369;52.030;4.586;2023-02-22T03:46:58;14.90;;;9.73;;
41683;SDS011;27369;52.030;4.586;2023-02-22T03:52:00;15.95;;;8.80;;
41683;SDS011;27369;52.030;4.586;2023-02-22T03:54:28;15.77;;;7.63;;
41683;SDS011;27369;52.030;4.586;2023-02-22T03:56:56;13.23;;;6.50;;
41683;SDS011;27369;52.030;4.586;2023-02-22T03:59:24;12.45;;;8.75;;
41683;SDS011;27369;52.030;4.586;2023-02-22T04:01:55;20.42;;;10.88;;
41683;SDS011;27369;52.030;4.586;2023-02-22T04:04:21;13.63;;;8.50;;
41683;SDS011;27369;52.030;4.586;2023-02-22T04:06:47;8.75;;;7.45;;
41683;SDS011;27369;52.030;4.586;2023-02-22T04:09:13;5.55;;;5.10;;
41683;SDS011;27369;52.030;4.586;2023-02-22T04:11:40;16.27;;;6.68;;
41683;SDS011;27369;52.030;4.586;2023-02-22T04:14:05;13.90;;;7.10;;
41683;SDS011;27369;52.030;4.586;2023-02-22T04:16:31;10.32;;;7.07;;
41683;SDS011;27369;52.030;4.586;2023-02-22T04:18:56;19.65;;;7.80;;
41683;SDS011;27369;52.030;4.586;2023-02-22T04:21:22;16.48;;;10.85;;
41683;SDS011;27369;52.030;4.586;2023-02-22T04:23:47;5.63;;;5.18;;
41683;SDS011;27369;52.030;4.586;2023-02-22T04:26:13;21.02;;;11.18;;
41683;SDS011;27369;52.030;4.586;2023-02-22T04:28:38;10.63;;;8.10;;
41683;SDS011;27369;52.030;4.586;2023-02-22T04:31:04;25.87;;;12.63;;
41683;SDS011;27369;52.030;4.586;2023-02-22T04:33:29;27.45;;;12.20;;
41683;SDS011;27369;52.030;4.586;2023-02-22T04:35:55;9.90;;;6.72;;
41683;SDS011;27369;52.030;4.586;2023-02-22T04:38:22;16.02;;;8.00;;
41683;SDS011;27369;52.030;4.586;2023-02-22T04:40:50;10.63;;;9.60;;
41683;SDS011;27369;52.030;4.586;2023-02-22T04:43:15;13.30;;;9.55;;
41683;SDS011;27369;52.030;4.586;2023-02-22T04:45:41;36.38;;;11.88;;
41683;SDS011;27369;52.030;4.586;2023-02-22T04:48:06;13.45;;;8.98;;
41683;SDS011;27369;52.030;4.586;2023-02-22T04:50:32;9.55;;;8.63;;
41683;SDS011;27369;52.030;4.586;2023-02-22T04:52:58;19.00;;;10.93;;
41683;SDS011;27369;52.030;4.586;2023-02-22T04:55:23;21.92;;;12.15;;
41683;SDS011;27369;52.030;4.586;2023-02-22T04:57:48;13.90;;;7.97;;
41683;SDS011;27369;52.030;4.586;2023-02-22T05:00:15;16.13;;;10.48;;
41683;SDS011;27369;52.030;4.586;2023-02-22T05:02:41;10.07;;;8.60;;
41683;SDS011;27369;52.030;4.586;2023-02-22T05:05:06;12.30;;;8.80;;
41683;SDS011;27369;52.030;4.586;2023-02-22T05:07:32;13.13;;;8.85;;
41683;SDS011;27369;52.030;4.586;2023-02-22T05:09:57;16.35;;;10.45;;
41683;SDS011;27369;52.030;4.586;2023-02-22T05:12:24;13.88;;;9.32;;
41683;SDS011;27369;52.030;4.586;2023-02-22T05:14:51;10.40;;;8.52;;
41683;SDS011;27369;52.030;4.586;2023-02-22T05:17:17;10.70;;;8.40;;
41683;SDS011;27369;52.030;4.586;2023-02-22T05:19:42;17.33;;;12.98;;
41683;SDS011;27369;52.030;4.586;2023-02-22T05:22:07;7.20;;;6.45;;
41683;SDS011;27369;52.030;4.586;2023-02-22T05:24:33;15.88;;;10.40;;
41683;SDS011;27369;52.030;4.586;2023-02-22T05:26:59;16.77;;;9.68;;
41683;SDS011;27369;52.030;4.586;2023-02-22T05:29:24;18.27;;;11.93;;
41683;SDS011;27369;52.030;4.586;2023-02-22T05:31:50;19.73;;;7.93;;
41683;SDS011;27369;52.030;4.586;2023-02-22T05:34:15;15.18;;;13.57;;
41683;SDS011;27369;52.030;4.586;2023-02-22T05:36:41;12.52;;;9.07;;
41683;SDS011;27369;52.030;4.586;2023-02-22T05:39:06;11.45;;;9.45;;
41683;SDS011;27369;52.030;4.586;2023-02-22T05:41:32;13.97;;;11.17;;
41683;SDS011;27369;52.030;4.586;2023-02-22T05:43:57;19.48;;;12.70;;
41683;SDS011;27369;52.030;4.586;2023-02-22T05:46:23;14.45;;;9.55;;
41683;SDS011;27369;52.030;4.586;2023-02-22T05:48:49;22.48;;;13.30;;
41683;SDS011;27369;52.030;4.586;2023-02-22T05:51:14;7.72;;;5.47;;
41683;SDS011;27369;52.030;4.586;2023-02-22T05:53:39;16.55;;;10.07;;
41683;SDS011;27369;52.030;4.586;2023-02-22T05:56:06;19.83;;;9.90;;
41683;SDS011;27369;52.030;4.586;2023-02-22T05:58:32;11.27;;;9.45;;
41683;SDS011;27369;52.030;4.586;2023-02-22T06:00:57;14.57;;;8.95;;
41683;SDS011;27369;52.030;4.586;2023-02-22T06:03:23;8.32;;;7.60;;
41683;SDS011;27369;52.030;4.586;2023-02-22T06:05:49;11.80;;;9.60;;
41683;SDS011;27369;52.030;4.586;2023-02-22T06:08:14;7.47;;;6.15;;
41683;SDS011;27369;52.030;4.586;2023-02-22T06:10:40;9.60;;;5.65;;
41683;SDS011;27369;52.030;4.586;2023-02-22T06:13:05;11.95;;;9.55;;
41683;SDS011;27369;52.030;4.586;2023-02-22T06:15:31;20.35;;;9.65;;
41683;SDS011;27369;52.030;4.586;2023-02-22T06:17:57;7.60;;;6.90;;
41683;SDS011;27369;52.030;4.586;2023-02-22T06:20:24;14.75;;;9.30;;
41683;SDS011;27369;52.030;4.586;2023-02-22T06:22:51;9.38;;;6.38;;
41683;SDS011;27369;52.030;4.586;2023-02-22T06:25:19;12.50;;;9.48;;
41683;SDS011;27369;52.030;4.586;2023-02-22T06:27:49;8.18;;;6.25;;
41683;SDS011;27369;52.030;4.586;2023-02-22T06:30:15;13.98;;;8.73;;
41683;SDS011;27369;52.030;4.586;2023-02-22T06:32:42;12.70;;;10.90;;
41683;SDS011;27369;52.030;4.586;2023-02-22T06:35:07;6.75;;;6.13;;
41683;SDS011;27369;52.030;4.586;2023-02-22T06:37:33;7.30;;;6.38;;
41683;SDS011;27369;52.030;4.586;2023-02-22T06:39:59;22.83;;;10.13;;
41683;SDS011;27369;52.030;4.586;2023-02-22T06:42:24;9.70;;;7.57;;
41683;SDS011;27369;52.030;4.586;2023-02-22T06:44:49;11.43;;;9.73;;
41683;SDS011;27369;52.030;4.586;2023-02-22T06:47:15;18.38;;;11.13;;
41683;SDS011;27369;52.030;4.586;2023-02-22T06:49:40;16.35;;;7.75;;
41683;SDS011;27369;52.030;4.586;2023-02-22T06:52:06;8.45;;;6.75;;
41683;SDS011;27369;52.030;4.586;2023-02-22T06:54:33;10.68;;;8.07;;
41683;SDS011;27369;52.030;4.586;2023-02-22T06:56:59;8.57;;;7.70;;
41683;SDS011;27369;52.030;4.586;2023-02-22T06:59:24;12.77;;;10.68;;
41683;SDS011;27369;52.030;4.586;2023-02-22T07:01:50;16.13;;;10.38;;
41683;SDS011;27369;52.030;4.586;2023-02-22T07:04:15;12.73;;;9.00;;
41683;SDS011;27369;52.030;4.586;2023-02-22T07:06:47;11.30;;;10.18;;
41683;SDS011;27369;52.030;4.586;2023-02-22T07:09:14;14.70;;;12.05;;
41683;SDS011;27369;52.030;4.586;2023-02-22T07:11:40;5.68;;;5.38;;
41683;SDS011;27369;52.030;4.586;2023-02-22T07:14:06;10.85;;;9.73;;
41683;SDS011;27369;52.030;4.586;2023-02-22T07:16:31;9.65;;;7.15;;
41683;SDS011;27369;52.030;4.586;2023-02-22T07:18:57;15.32;;;10.95;;
41683;SDS011;27369;52.030;4.586;2023-02-22T07:21:24;26.40;;;13.23;;
41683;SDS011;27369;52.030;4.586;2023-02-22T07:23:51;14.10;;;10.35;;
41683;SDS011;27369;52.030;4.586;2023-02-22T07:26:17;8.25;;;7.57;;
41683;SDS011;27369;52.030;4.586;2023-02-22T07:28:43;9.27;;;8.35;;
41683;SDS011;27369;52.030;4.586;2023-02-22T07:31:08;10.25;;;9.25;;
41683;SDS011;27369;52.030;4.586;2023-02-22T07:33:33;9.07;;;8.32;;
41683;SDS011;27369;52.030;4.586;2023-02-22T07:35:59;16.17;;;10.70;;
41683;SDS011;27369;52.030;4.586;2023-02-22T07:38:24;11.93;;;10.70;;
41683;SDS011;27369;52.030;4.586;2023-02-22T07:40:50;15.23;;;10.70;;
41683;SDS011;27369;52.030;4.586;2023-02-22T07:45:46;11.55;;;9.20;;
41683;SDS011;27369;52.030;4.586;2023-02-22T07:48:13;12.65;;;9.13;;
41683;SDS011;27369;52.030;4.586;2023-02-22T07:50:39;9.80;;;8.20;;
41683;SDS011;27369;52.030;4.586;2023-02-22T07:53:06;11.45;;;9.13;;
41683;SDS011;27369;52.030;4.586;2023-02-22T07:55:35;17.15;;;9.52;;
41683;SDS011;27369;52.030;4.586;2023-02-22T07:58:02;8.57;;;7.75;;
41683;SDS011;27369;52.030;4.586;2023-02-22T08:00:31;15.35;;;10.68;;
41683;SDS011;27369;52.030;4.586;2023-02-22T08:03:04;11.32;;;6.65;;
41683;SDS011;27369;52.030;4.586;2023-02-22T08:05:32;15.70;;;11.45;;
41683;SDS011;27369;52.030;4.586;2023-02-22T08:07:59;6.07;;;5.22;;
41683;SDS011;27369;52.030;4.586;2023-02-22T08:10:25;17.08;;;10.45;;
41683;SDS011;27369;52.030;4.586;2023-02-22T08:12:51;13.85;;;7.32;;
41683;SDS011;27369;52.030;4.586;2023-02-22T08:15:22;8.32;;;7.50;;
41683;SDS011;27369;52.030;4.586;2023-02-22T08:17:54;10.05;;;6.75;;
41683;SDS011;27369;52.030;4.586;2023-02-22T08:20:20;16.73;;;11.52;;
41683;SDS011;27369;52.030;4.586;2023-02-22T08:22:46;8.52;;;6.78;;
41683;SDS011;27369;52.030;4.586;2023-02-22T08:25:12;13.48;;;11.70;;
41683;SDS011;27369;52.030;4.586;2023-02-22T08:27:40;9.27;;;8.13;;
41683;SDS011;27369;52.030;4.586;2023-02-22T08:30:06;13.73;;;10.07;;
41683;SDS011;27369;52.030;4.586;2023-02-22T08:32:32;21.70;;;12.95;;
41683;SDS011;27369;52.030;4.586;2023-02-22T08:34:59;11.55;;;7.45;;
41683;SDS011;27369;52.030;4.586;2023-02-22T08:39:51;7.63;;;5.63;;
41683;SDS011;27369;52.030;4.586;2023-02-22T08:42:17;9.25;;;7.63;;
41683;SDS011;27369;52.030;4.586;2023-02-22T08:44:43;9.55;;;7.53;;
41683;SDS011;27369;52.030;4.586;2023-02-22T08:47:08;14.18;;;10.38;;
41683;SDS011;27369;52.030;4.586;2023-02-22T08:49:33;17.50;;;11.55;;
41683;SDS011;27369;52.030;4.586;2023-02-22T08:51:59;14.68;;;11.13;;
41683;SDS011;27369;52.030;4.586;2023-02-22T08:54:24;9.98;;;9.20;;
41683;SDS011;27369;52.030;4.586;2023-02-22T08:56:50;19.13;;;10.80;;
41683;SDS011;27369;52.030;4.586;2023-02-22T08:59:15;7.30;;;5.63;;
41683;SDS011;27369;52.030;4.586;2023-02-22T09:01:41;10.40;;;9.32;;
41683;SDS011;27369;52.030;4.586;2023-02-22T09:04:07;14.65;;;8.40;;
41683;SDS011;27369;52.030;4.586;2023-02-22T09:06:32;5.35;;;4.90;;
41683;SDS011;27369;52.030;4.586;2023-02-22T09:08:58;17.90;;;9.98;;
41683;SDS011;27369;52.030;4.586;2023-02-22T09:11:23;13.82;;;9.18;;
41683;SDS011;27369;52.030;4.586;2023-02-22T09:13:49;9.40;;;7.63;;
41683;SDS011;27369;52.030;4.586;2023-02-22T09:16:14;9.50;;;7.20;;
41683;SDS011;27369;52.030;4.586;2023-02-22T09:18:40;4.82;;;3.95;;
41683;SDS011;27369;52.030;4.586;2023-02-22T09:21:05;13.27;;;8.40;;
41683;SDS011;27369;52.030;4.586;2023-02-22T09:23:31;6.80;;;6.13;;
41683;SDS011;27369;52.030;4.586;2023-02-22T09:25:56;9.35;;;8.50;;
41683;SDS011;27369;52.030;4.586;2023-02-22T09:28:24;15.20;;;7.65;;
41683;SDS011;27369;52.030;4.586;2023-02-22T09:30:51;9.63;;;7.50;;
41683;SDS011;27369;52.030;4.586;2023-02-22T09:33:17;13.23;;;6.38;;
41683;SDS011;27369;52.030;4.586;2023-02-22T09:35:44;5.95;;;5.15;;
41683;SDS011;27369;52.030;4.586;2023-02-22T09:38:15;10.20;;;7.38;;
41683;SDS011;27369;52.030;4.586;2023-02-22T09:40:55;11.35;;;7.07;;
41683;SDS011;27369;52.030;4.586;2023-02-22T09:43:52;13.73;;;9.68;;
41683;SDS011;27369;52.030;4.586;2023-02-22T09:46:35;6.85;;;5.00;;
41683;SDS011;27369;52.030;4.586;2023-02-22T09:52:13;4.90;;;4.55;;
41683;SDS011;27369;52.030;4.586;2023-02-22T09:54:49;3.65;;;3.42;;
41683;SDS011;27369;52.030;4.586;2023-02-22T09:57:27;6.05;;;5.28;;
41683;SDS011;27369;52.030;4.586;2023-02-22T10:02:45;3.35;;;2.70;;
41683;SDS011;27369;52.030;4.586;2023-02-22T10:05:14;5.90;;;5.40;;
41683;SDS011;27369;52.030;4.586;2023-02-22T10:08:04;9.77;;;7.72;;
41683;SDS011;27369;52.030;4.586;2023-02-22T10:10:34;10.73;;;6.30;;
41683;SDS011;27369;52.030;4.586;2023-02-22T10:21:30;7.93;;;5.78;;
41683;SDS011;27369;52.030;4.586;2023-02-22T10:26:41;2.50;;;2.33;;
41683;SDS011;27369;52.030;4.586;2023-02-22T10:31:50;4.53;;;3.75;;
41683;SDS011;27369;52.030;4.586;2023-02-22T10:34:23;11.25;;;5.72;;
41683;SDS011;27369;52.030;4.586;2023-02-22T10:36:53;1.98;;;1.88;;
41683;SDS011;27369;52.030;4.586;2023-02-22T10:39:30;3.97;;;2.65;;
41683;SDS011;27369;52.030;4.586;2023-02-22T10:42:02;2.90;;;2.70;;
41683;SDS011;27369;52.030;4.586;2023-02-22T10:44:36;5.15;;;3.92;;
41683;SDS011;27369;52.030;4.586;2023-02-22T10:47:07;4.13;;;3.78;;
41683;SDS011;27369;52.030;4.586;2023-02-22T10:49:37;10.55;;;4.03;;
41683;SDS011;27369;52.030;4.586;2023-02-22T10:52:22;3.20;;;1.58;;
41683;SDS011;27369;52.030;4.586;2023-02-22T10:54:51;2.70;;;2.45;;
41683;SDS011;27369;52.030;4.586;2023-02-22T10:57:28;4.80;;;4.07;;
41683;SDS011;27369;52.030;4.586;2023-02-22T10:59:58;4.10;;;3.10;;
41683;SDS011;27369;52.030;4.586;2023-02-22T11:02:56;7.38;;;3.35;;
41683;SDS011;27369;52.030;4.586;2023-02-22T11:05:25;4.32;;;4.03;;
41683;SDS011;27369;52.030;4.586;2023-02-22T11:07:51;5.18;;;3.42;;
41683;SDS011;27369;52.030;4.586;2023-02-22T11:10:21;5.30;;;3.53;;
41683;SDS011;27369;52.030;4.586;2023-02-22T11:17:47;4.95;;;4.13;;
41683;SDS011;27369;52.030;4.586;2023-02-22T11:20:18;1.70;;;1.33;;
41683;SDS011;27369;52.030;4.586;2023-02-22T11:22:53;6.95;;;2.85;;
41683;SDS011;27369;52.030;4.586;2023-02-22T11:25:26;5.25;;;3.47;;
41683;SDS011;27369;52.030;4.586;2023-02-22T11:28:05;8.35;;;4.40;;
41683;SDS011;27369;52.030;4.586;2023-02-22T11:30:38;1.70;;;1.58;;
41683;SDS011;27369;52.030;4.586;2023-02-22T11:33:20;3.58;;;2.92;;
41683;SDS011;27369;52.030;4.586;2023-02-22T11:35:53;2.58;;;2.42;;
41683;SDS011;27369;52.030;4.586;2023-02-22T11:38:22;2.72;;;2.42;;
41683;SDS011;27369;52.030;4.586;2023-02-22T11:41:03;1.55;;;0.38;;
41683;SDS011;27369;52.030;4.586;2023-02-22T11:43:29;2.00;;;1.70;;
41683;SDS011;27369;52.030;4.586;2023-02-22T11:45:56;3.53;;;3.05;;
41683;SDS011;27369;52.030;4.586;2023-02-22T11:48:24;0.10;;;0.10;;
41683;SDS011;27369;52.030;4.586;2023-02-22T11:54:01;2.38;;;2.20;;
41683;SDS011;27369;52.030;4.586;2023-02-22T11:56:35;3.85;;;3.58;;
41683;SDS011;27369;52.030;4.586;2023-02-22T12:07:19;3.47;;;1.77;;
41683;SDS011;27369;52.030;4.586;2023-02-22T12:10:03;1.02;;;1.02;;
41683;SDS011;27369;52.030;4.586;2023-02-22T12:15:22;3.60;;;2.50;;
41683;SDS011;27369;52.030;4.586;2023-02-22T12:28:24;2.58;;;2.40;;
41683;SDS011;27369;52.030;4.586;2023-02-22T12:33:53;0.38;;;0.38;;
41683;SDS011;27369;52.030;4.586;2023-02-22T12:36:47;0.00;;;0.00;;
41683;SDS011;27369;52.030;4.586;2023-02-22T12:41:54;0.93;;;0.77;;
41683;SDS011;27369;52.030;4.586;2023-02-22T12:44:23;1.00;;;0.98;;
41683;SDS011;27369;52.030;4.586;2023-02-22T12:46:54;5.07;;;3.92;;
41683;SDS011;27369;52.030;4.586;2023-02-22T12:49:35;3.10;;;2.28;;
41683;SDS011;27369;52.030;4.586;2023-02-22T12:52:13;8.00;;;5.15;;
41683;SDS011;27369;52.030;4.586;2023-02-22T13:05:39;0.35;;;0.32;;
41683;SDS011;27369;52.030;4.586;2023-02-22T13:11:07;0.22;;;0.22;;
41683;SDS011;27369;52.030;4.586;2023-02-22T13:26:52;0.45;;;0.45;;
41683;SDS011;27369;52.030;4.586;2023-02-22T13:29:29;0.68;;;0.68;;
41683;SDS011;27369;52.030;4.586;2023-02-22T13:34:56;0.50;;;0.50;;
41683;SDS011;27369;52.030;4.586;2023-02-22T13:37:58;0.03;;;0.03;;
41683;SDS011;27369;52.030;4.586;2023-02-22T13:51:48;0.52;;;0.52;;
41683;SDS011;27369;52.030;4.586;2023-02-22T13:54:18;0.95;;;0.95;;
41683;SDS011;27369;52.030;4.586;2023-02-22T13:56:45;1.60;;;1.02;;
41683;SDS011;27369;52.030;4.586;2023-02-22T13:59:25;0.40;;;0.40;;
41683;SDS011;27369;52.030;4.586;2023-02-22T14:01:54;0.55;;;0.55;;
41683;SDS011;27369;52.030;4.586;2023-02-22T14:06:52;0.10;;;0.10;;
41683;SDS011;27369;52.030;4.586;2023-02-22T14:12:54;0.40;;;0.40;;
41683;SDS011;27369;52.030;4.586;2023-02-22T14:17:39;1.10;;;1.05;;
41683;SDS011;27369;52.030;4.586;2023-02-22T14:22:38;0.45;;;0.45;;
41683;SDS011;27369;52.030;4.586;2023-02-22T14:25:05;2.63;;;2.42;;
41683;SDS011;27369;52.030;4.586;2023-02-22T14:27:51;1.38;;;1.00;;
41683;SDS011;27369;52.030;4.586;2023-02-22T14:30:27;3.75;;;1.95;;
41683;SDS011;27369;52.030;4.586;2023-02-22T14:32:57;1.98;;;1.85;;
41683;SDS011;27369;52.030;4.586;2023-02-22T14:35:24;2.38;;;1.55;;
41683;SDS011;27369;52.030;4.586;2023-02-22T14:37:57;1.88;;;1.77;;
41683;SDS011;27369;52.030;4.586;2023-02-22T14:40:35;2.63;;;1.75;;
41683;SDS011;27369;52.030;4.586;2023-02-22T14:45:34;0.85;;;0.65;;
41683;SDS011;27369;52.030;4.586;2023-02-22T14:51:04;1.95;;;1.77;;
41683;SDS011;27369;52.030;4.586;2023-02-22T14:53:53;1.67;;;1.58;;
41683;SDS011;27369;52.030;4.586;2023-02-22T14:58:56;4.63;;;2.83;;
41683;SDS011;27369;52.030;4.586;2023-02-22T15:01:34;3.88;;;3.33;;
41683;SDS011;27369;52.030;4.586;2023-02-22T15:06:51;2.72;;;2.53;;
41683;SDS011;27369;52.030;4.586;2023-02-22T15:09:19;0.25;;;0.25;;
41683;SDS011;27369;52.030;4.586;2023-02-22T15:14:37;0.68;;;0.57;;
41683;SDS011;27369;52.030;4.586;2023-02-22T15:17:09;3.05;;;2.58;;
41683;SDS011;27369;52.030;4.586;2023-02-22T15:19:41;6.82;;;5.60;;
41683;SDS011;27369;52.030;4.586;2023-02-22T15:22:13;6.78;;;5.15;;
41683;SDS011;27369;52.030;4.586;2023-02-22T15:24:58;2.05;;;1.95;;
41683;SDS011;27369;52.030;4.586;2023-02-22T15:27:25;2.55;;;2.35;;
41683;SDS011;27369;52.030;4.586;2023-02-22T15:30:37;10.98;;;5.60;;
41683;SDS011;27369;52.030;4.586;2023-02-22T15:32:44;5.65;;;3.95;;
41683;SDS011;27369;52.030;4.586;2023-02-22T15:37:56;16.65;;;9.90;;
41683;SDS011;27369;52.030;4.586;2023-02-22T15:40:25;28.67;;;14.75;;
41683;SDS011;27369;52.030;4.586;2023-02-22T15:42:57;22.08;;;14.07;;
41683;SDS011;27369;52.030;4.586;2023-02-22T15:45:24;18.73;;;10.73;;
41683;SDS011;27369;52.030;4.586;2023-02-22T15:47:52;21.13;;;15.80;;
41683;SDS011;27369;52.030;4.586;2023-02-22T15:53:04;10.32;;;8.80;;
41683;SDS011;27369;52.030;4.586;2023-02-22T15:55:34;7.25;;;3.67;;
41683;SDS011;27369;52.030;4.586;2023-02-22T15:58:09;12.48;;;8.65;;
41683;SDS011;27369;52.030;4.586;2023-02-22T16:00:42;17.10;;;10.55;;
41683;SDS011;27369;52.030;4.586;2023-02-22T16:03:12;3.67;;;3.45;;
41683;SDS011;27369;52.030;4.586;2023-02-22T16:05:51;16.10;;;9.20;;
41683;SDS011;27369;52.030;4.586;2023-02-22T16:11:26;30.17;;;16.35;;
41683;SDS011;27369;52.030;4.586;2023-02-22T16:13:59;22.95;;;13.10;;
41683;SDS011;27369;52.030;4.586;2023-02-22T16:16:32;14.10;;;12.07;;
41683;SDS011;27369;52.030;4.586;2023-02-22T16:21:52;16.67;;;10.40;;
41683;SDS011;27369;52.030;4.586;2023-02-22T16:24:26;30.92;;;15.30;;
41683;SDS011;27369;52.030;4.586;2023-02-22T16:27:03;15.68;;;12.18;;
41683;SDS011;27369;52.030;4.586;2023-02-22T16:29:29;34.13;;;16.20;;
41683;SDS011;27369;52.030;4.586;2023-02-22T16:31:54;12.48;;;9.25;;
41683;SDS011;27369;52.030;4.586;2023-02-22T16:34:20;9.57;;;8.05;;
41683;SDS011;27369;52.030;4.586;2023-02-22T16:36:46;8.60;;;7.43;;
41683;SDS011;27369;52.030;4.586;2023-02-22T16:39:23;15.10;;;9.48;;
41683;SDS011;27369;52.030;4.586;2023-02-22T16:41:51;3.25;;;3.05;;
41683;SDS011;27369;52.030;4.586;2023-02-22T16:44:18;10.85;;;7.80;;
41683;SDS011;27369;52.030;4.586;2023-02-22T16:46:43;9.52;;;6.15;;
41683;SDS011;27369;52.030;4.586;2023-02-22T16:49:12;33.65;;;18.45;;
41683;SDS011;27369;52.030;4.586;2023-02-22T16:54:33;34.97;;;17.85;;
41683;SDS011;27369;52.030;4.586;2023-02-22T16:57:01;27.38;;;17.45;;
41683;SDS011;27369;52.030;4.586;2023-02-22T16:59:32;16.83;;;13.02;;
41683;SDS011;27369;52.030;4.586;2023-02-22T17:02:02;6.60;;;5.97;;
41683;SDS011;27369;52.030;4.586;2023-02-22T17:04:31;22.48;;;13.52;;
41683;SDS011;27369;52.030;4.586;2023-02-22T17:06:58;7.00;;;6.57;;
41683;SDS011;27369;52.030;4.586;2023-02-22T17:09:23;14.98;;;10.68;;
41683;SDS011;27369;52.030;4.586;2023-02-22T17:11:49;13.45;;;8.40;;
41683;SDS011;27369;52.030;4.586;2023-02-22T17:14:16;9.20;;;6.05;;
41683;SDS011;27369;52.030;4.586;2023-02-22T17:16:50;8.70;;;6.63;;
41683;SDS011;27369;52.030;4.586;2023-02-22T17:19:17;17.38;;;11.10;;
41683;SDS011;27369;52.030;4.586;2023-02-22T17:21:44;13.93;;;11.05;;
41683;SDS011;27369;52.030;4.586;2023-02-22T17:24:10;4.47;;;4.18;;
41683;SDS011;27369;52.030;4.586;2023-02-22T17:26:37;4.43;;;4.10;;
41683;SDS011;27369;52.030;4.586;2023-02-22T17:29:03;9.70;;;6.18;;
41683;SDS011;27369;52.030;4.586;2023-02-22T17:31:29;6.65;;;6.13;;
41683;SDS011;27369;52.030;4.586;2023-02-22T17:33:56;9.02;;;7.20;;
41683;SDS011;27369;52.030;4.586;2023-02-22T17:36:28;6.18;;;5.05;;
41683;SDS011;27369;52.030;4.586;2023-02-22T17:38:55;8.30;;;5.35;;
41683;SDS011;27369;52.030;4.586;2023-02-22T17:41:20;5.80;;;5.38;;
41683;SDS011;27369;52.030;4.586;2023-02-22T17:43:46;4.18;;;2.53;;
41683;SDS011;27369;52.030;4.586;2023-02-22T17:46:12;13.82;;;10.25;;
41683;SDS011;27369;52.030;4.586;2023-02-22T17:48:37;10.57;;;7.15;;